Time;durP1;ratioP1;P1;durP2;ratioP2;P2;SDS_P1;SDS_P2;PMS_P1;PMS_P2;Temp;Humidity;BMP_temperature;BMP_pressure;BME280_temperature;BME280_humidity;BME280_pressure;Samples;Min_cycle;Max_cycle;Signal;HPM_P1;HPM_P2
2021/07/27 00:00:36;;;;;;;9.30;7.43;;;21.10;1.00;;;;;;5136083;27;20645;-56
2021/07/27 00:03:02;;;;;;;12.93;8.50;;;21.00;1.00;;;;;;5133526;27;20466;-56
2021/07/27 00:05:30;;;;;;;7.90;7.20;;;21.00;1.00;;;;;;5132272;27;20452;-54
2021/07/27 00:07:56;;;;;;;10.57;7.27;;;21.10;1.00;;;;;;5135849;27;20434;-56
2021/07/27 00:10:23;;;;;;;8.77;7.97;;;21.10;1.00;;;;;;5138456;27;20830;-55
2021/07/27 00:12:49;;;;;;;8.23;7.30;;;21.10;1.00;;;;;;5140556;27;20541;-56
2021/07/27 00:15:14;;;;;;;8.03;7.33;;;21.00;1.00;;;;;;5127949;27;20517;-57
2021/07/27 00:17:40;;;;;;;8.77;7.33;;;21.00;1.00;;;;;;5134190;27;20327;-55
2021/07/27 00:20:06;;;;;;;12.10;7.73;;;20.90;1.00;;;;;;5135011;27;20213;-56
2021/07/27 00:22:32;;;;;;;9.13;8.33;;;20.90;1.00;;;;;;5132754;27;20216;-54
2021/07/27 00:24:58;;;;;;;8.33;7.50;;;20.90;1.00;;;;;;5130737;27;20447;-56
2021/07/27 00:27:23;;;;;;;8.90;8.00;;;20.90;1.00;;;;;;5134348;27;20260;-55
2021/07/27 00:29:49;;;;;;;8.43;7.17;;;21.00;1.00;;;;;;5150461;27;20513;-55
2021/07/27 00:32:15;;;;;;;7.93;7.13;;;21.00;1.00;;;;;;5113096;27;20300;-55
2021/07/27 00:34:40;;;;;;;8.30;7.60;;;21.00;1.00;;;;;;5126397;27;20806;-55
2021/07/27 00:37:15;;;;;;;9.13;8.33;;;20.90;1.00;;;;;;5129541;27;20189;-55
2021/07/27 00:39:41;;;;;;;8.47;7.07;;;20.90;1.00;;;;;;5134478;27;20242;-56
2021/07/27 00:42:06;;;;;;;7.93;7.13;;;20.90;1.00;;;;;;5114432;27;20829;-58
2021/07/27 00:44:32;;;;;;;7.63;6.83;;;21.00;1.00;;;;;;5132336;27;20244;-55
2021/07/27 00:46:57;;;;;;;6.50;5.90;;;20.90;1.00;;;;;;5134186;27;20256;-55
2021/07/27 00:49:23;;;;;;;8.93;6.90;;;20.90;1.00;;;;;;5128657;27;20181;-55
2021/07/27 00:51:49;;;;;;;7.30;6.60;;;20.90;1.00;;;;;;5147678;27;20778;-54
2021/07/27 00:54:14;;;;;;;11.67;7.13;;;20.90;1.00;;;;;;5133203;27;20185;-56
2021/07/27 00:56:40;;;;;;;8.27;6.27;;;20.90;1.00;;;;;;5134449;27;20210;-55
2021/07/27 00:59:06;;;;;;;7.73;6.90;;;20.90;1.00;;;;;;5130825;27;20522;-55
2021/07/27 01:01:31;;;;;;;8.47;6.40;;;20.90;1.00;;;;;;5130839;27;20583;-54
2021/07/27 01:03:57;;;;;;;9.37;6.50;;;20.90;1.00;;;;;;5126008;27;20563;-56
2021/07/27 01:06:23;;;;;;;6.50;6.00;;;;;;;;;;5143880;27;20261;-56
2021/07/27 01:08:50;;;;;;;6.53;5.97;;;20.30;1.00;;;;;;5133495;27;21066;-54
2021/07/27 01:11:24;;;;;;;9.63;7.27;;;20.70;1.00;;;;;;5130077;27;20449;-56
2021/07/27 01:13:49;;;;;;;9.27;6.83;;;20.70;1.00;;;;;;5131135;27;20442;-55
2021/07/27 01:16:16;;;;;;;7.40;6.80;;;20.80;1.00;;;;;;5130608;27;20435;-55
2021/07/27 01:18:54;;;;;;;7.10;6.50;;;20.70;1.00;;;;;;5128840;27;20242;-55
2021/07/27 01:38:07;;;;;;;8.83;6.63;;;20.40;1.00;;;;;;5128639;27;20547;-57
2021/07/27 01:40:50;;;;;;;8.00;7.20;;;20.40;1.00;;;;;;5131696;27;20438;-55
2021/07/27 01:43:19;;;;;;;8.53;6.60;;;20.50;1.00;;;;;;5130117;27;20458;-55
2021/07/27 01:45:45;;;;;;;6.93;6.23;;;20.50;1.00;;;;;;5132386;27;20533;-55
2021/07/27 01:48:10;;;;;;;7.60;6.90;;;20.40;1.00;;;;;;5136108;27;20533;-56
2021/07/27 01:50:36;;;;;;;7.57;6.83;;;20.40;1.00;;;;;;5132470;27;20253;-54
2021/07/27 01:53:05;;;;;;;8.90;6.27;;;20.40;1.00;;;;;;5111858;27;20228;-55
2021/07/27 01:55:34;;;;;;;6.73;5.87;;;20.40;1.00;;;;;;5126174;27;20643;-54
2021/07/27 01:58:04;;;;;;;6.70;6.10;;;20.30;1.00;;;;;;5120492;27;20450;-55
2021/07/27 02:00:32;;;;;;;7.10;6.40;;;20.30;1.00;;;;;;5131333;27;20439;-54
2021/07/27 02:02:57;;;;;;;8.73;6.30;;;20.30;1.00;;;;;;5132045;27;20489;-56
2021/07/27 02:05:23;;;;;;;7.73;6.60;;;20.20;1.00;;;;;;5132093;27;20901;-55
2021/07/27 02:07:55;;;;;;;8.83;6.70;;;20.20;1.00;;;;;;5128162;27;20182;-54
2021/07/27 02:10:20;;;;;;;7.83;7.03;;;20.20;1.00;;;;;;5134489;27;20518;-55
2021/07/27 02:12:51;;;;;;;6.80;6.10;;;20.20;1.00;;;;;;5130982;27;20435;-55
2021/07/27 02:15:18;;;;;;;8.20;7.50;;;20.10;1.00;;;;;;5131753;27;20807;-56
2021/07/27 02:17:45;;;;;;;7.83;6.37;;;20.20;1.00;;;;;;5128225;27;20939;-55
2021/07/27 02:20:11;;;;;;;6.33;5.77;;;20.10;1.00;;;;;;5131427;27;20429;-55
2021/07/27 02:22:37;;;;;;;7.47;6.10;;;20.10;1.00;;;;;;5133008;27;20507;-55
2021/07/27 02:25:07;;;;;;;6.50;5.90;;;20.00;1.00;;;;;;5130756;27;21124;-55
2021/07/27 02:27:33;;;;;;;6.23;5.73;;;20.00;1.00;;;;;;5144938;27;20465;-55
2021/07/27 02:30:06;;;;;;;6.80;6.20;;;19.90;1.00;;;;;;5133026;27;20470;-55
2021/07/27 02:32:32;;;;;;;6.97;6.43;;;19.90;1.00;;;;;;5131712;27;20449;-54
2021/07/27 02:34:58;;;;;;;7.03;6.23;;;19.90;1.00;;;;;;5109516;27;20788;-55
2021/07/27 02:37:23;;;;;;;7.93;6.97;;;19.90;1.00;;;;;;5127451;27;20190;-56
2021/07/27 02:39:49;;;;;;;6.80;6.20;;;19.90;1.00;;;;;;5130161;27;20186;-54
2021/07/27 02:42:15;;;;;;;6.23;5.73;;;;;;;;;;5123576;27;20212;-55
2021/07/27 02:44:40;;;;;;;7.60;6.90;;;19.90;1.00;;;;;;5112619;27;20188;-56
2021/07/27 02:47:06;;;;;;;6.73;6.23;;;19.80;1.00;;;;;;5126322;27;20443;-55
2021/07/27 02:49:31;;;;;;;6.67;6.07;;;19.80;1.00;;;;;;5131575;27;20174;-55
2021/07/27 02:51:57;;;;;;;7.33;6.73;;;19.90;1.00;;;;;;5110663;28;20221;-55
2021/07/27 02:54:23;;;;;;;7.07;6.47;;;19.90;1.00;;;;;;5130491;27;20178;-56
2021/07/27 02:56:48;;;;;;;8.90;6.50;;;19.90;1.00;;;;;;5124875;27;20193;-54
2021/07/27 02:59:14;;;;;;;8.00;6.53;;;19.90;1.00;;;;;;5130664;27;20447;-55
2021/07/27 03:01:39;;;;;;;7.43;6.80;;;19.90;1.00;;;;;;5126042;27;20212;-56
2021/07/27 03:04:05;;;;;;;6.87;6.17;;;19.90;1.00;;;;;;5135507;27;20638;-55
2021/07/27 03:06:31;;;;;;;6.80;6.30;;;19.90;1.00;;;;;;5128048;27;20185;-55
2021/07/27 03:11:23;;;;;;;7.77;7.07;;;19.90;1.00;;;;;;5129427;27;20461;-55
2021/07/27 03:13:49;;;;;;;7.30;6.70;;;19.80;1.00;;;;;;5132868;27;20512;-55
2021/07/27 03:16:17;;;;;;;7.20;6.60;;;19.80;1.00;;;;;;5130675;27;20930;-55
2021/07/27 03:18:43;;;;;;;7.70;7.10;;;19.80;1.00;;;;;;5129533;27;20497;-57
2021/07/27 03:21:09;;;;;;;7.73;7.03;;;19.70;1.00;;;;;;5127068;27;20867;-55
2021/07/27 03:23:34;;;;;;;7.00;6.37;;;19.70;1.00;;;;;;5126612;27;20513;-57
2021/07/27 03:26:00;;;;;;;7.90;7.20;;;19.80;1.00;;;;;;5127890;27;20887;-54
2021/07/27 03:28:25;;;;;;;11.77;7.00;;;19.80;1.00;;;;;;5131482;27;20193;-54
2021/07/27 03:30:51;;;;;;;7.70;6.90;;;19.70;1.00;;;;;;5127601;27;20186;-55
2021/07/27 03:33:17;;;;;;;8.57;6.77;;;19.80;1.00;;;;;;5123444;27;20204;-56
2021/07/27 03:35:43;;;;;;;7.80;6.67;;;19.80;1.00;;;;;;5127696;27;20192;-55
2021/07/27 03:38:08;;;;;;;7.57;6.97;;;19.80;1.00;;;;;;5126393;27;20528;-55
2021/07/27 03:40:38;;;;;;;7.00;6.47;;;19.70;1.00;;;;;;5130680;27;20972;-54
2021/07/27 03:43:03;;;;;;;7.23;6.53;;;19.80;1.00;;;;;;5130312;27;20205;-56
2021/07/27 03:45:29;;;;;;;7.17;6.57;;;19.80;1.00;;;;;;5130402;27;20431;-55
2021/07/27 03:47:54;;;;;;;8.40;7.20;;;19.70;1.00;;;;;;5129793;27;20212;-55
2021/07/27 03:50:20;;;;;;;7.07;6.40;;;19.70;1.00;;;;;;5130581;27;20177;-56
2021/07/27 03:52:45;;;;;;;6.97;6.27;;;19.70;1.00;;;;;;5136142;27;20757;-56
2021/07/27 03:55:11;;;;;;;10.00;6.50;;;19.70;1.00;;;;;;5155024;27;20180;-54
2021/07/27 03:57:37;;;;;;;7.90;7.17;;;19.70;1.00;;;;;;5134682;27;20233;-57
2021/07/27 04:00:04;;;;;;;6.93;6.30;;;19.70;1.00;;;;;;5146388;27;20182;-54
2021/07/27 04:02:30;;;;;;;9.10;6.03;;;19.70;1.00;;;;;;5126423;27;20790;-54
2021/07/27 04:04:55;;;;;;;9.73;5.87;;;19.70;1.00;;;;;;5131677;27;20537;-55
2021/07/27 04:07:21;;;;;;;7.07;6.37;;;19.70;1.00;;;;;;5133374;27;20303;-54
2021/07/27 04:09:46;;;;;;;8.40;7.53;;;19.70;1.00;;;;;;5147128;27;20194;-54
2021/07/27 04:12:12;;;;;;;7.67;6.97;;;19.80;1.00;;;;;;5133937;27;20208;-55
2021/07/27 04:14:37;;;;;;;7.83;7.03;;;19.70;1.00;;;;;;5133654;27;20201;-54
2021/07/27 04:17:03;;;;;;;6.83;6.13;;;19.70;1.00;;;;;;5132815;27;20197;-54
2021/07/27 04:19:28;;;;;;;7.50;6.90;;;19.70;1.00;;;;;;5135432;27;20188;-55
2021/07/27 04:21:54;;;;;;;8.20;7.40;;;19.70;1.00;;;;;;5130626;27;20264;-56
2021/07/27 04:24:20;;;;;;;8.87;6.03;;;19.80;1.00;;;;;;5131363;27;20192;-55
2021/07/27 04:26:46;;;;;;;6.87;6.17;;;19.90;1.00;;;;;;5114015;27;20233;-54
2021/07/27 04:29:16;;;;;;;6.40;5.80;;;19.90;1.00;;;;;;5134737;27;20260;-55
2021/07/27 04:31:41;;;;;;;10.30;7.37;;;19.80;1.00;;;;;;5128789;27;20494;-55
2021/07/27 04:34:07;;;;;;;7.07;6.33;;;19.70;1.00;;;;;;5126272;27;20454;-55
2021/07/27 04:36:32;;;;;;;11.57;10.50;;;19.70;1.00;;;;;;5133822;27;20181;-54
2021/07/27 04:38:58;;;;;;;6.90;6.20;;;19.80;1.00;;;;;;5129535;27;20217;-55
2021/07/27 04:41:23;;;;;;;7.83;6.90;;;19.90;1.00;;;;;;5132694;27;20714;-55
2021/07/27 04:43:49;;;;;;;7.50;6.80;;;20.00;1.00;;;;;;5135776;27;20696;-54
2021/07/27 04:46:14;;;;;;;6.03;5.43;;;20.00;1.00;;;;;;5133247;27;20196;-55
2021/07/27 04:48:40;;;;;;;7.70;6.40;;;20.10;1.00;;;;;;5132161;27;20189;-55
2021/07/27 04:51:05;;;;;;;6.50;5.97;;;20.20;1.00;;;;;;5131648;27;20212;-56
2021/07/27 04:53:35;;;;;;;7.20;5.43;;;20.20;1.00;;;;;;5129350;27;20181;-54
2021/07/27 04:56:02;;;;;;;7.60;6.40;;;20.30;1.00;;;;;;5130611;27;20181;-56
2021/07/27 04:58:27;;;;;;;6.03;5.43;;;20.40;1.00;;;;;;5109525;27;20447;-54
2021/07/27 05:00:58;;;;;;;6.90;6.00;;;20.50;1.00;;;;;;5131162;27;20807;-55
2021/07/27 05:03:24;;;;;;;6.43;5.90;;;20.60;1.00;;;;;;5131439;27;20753;-55
2021/07/27 05:05:52;;;;;;;8.63;5.87;;;20.70;1.00;;;;;;5134660;27;20454;-55
2021/07/27 05:08:18;;;;;;;7.67;5.53;;;20.80;1.00;;;;;;5144384;27;20185;-55
2021/07/27 05:10:45;;;;;;;6.23;5.63;;;20.90;1.00;;;;;;5116891;27;20476;-56
2021/07/27 05:13:10;;;;;;;6.80;6.20;;;21.10;1.00;;;;;;5130478;27;20179;-54
2021/07/27 05:15:36;;;;;;;7.90;5.80;;;21.30;1.00;;;;;;5133153;27;20755;-55
2021/07/27 05:18:02;;;;;;;5.60;5.10;;;21.40;1.00;;;;;;5131804;27;20185;-54
2021/07/27 05:20:28;;;;;;;5.87;5.30;;;;;;;;;;5132877;27;20223;-54
2021/07/27 05:22:55;;;;;;;7.40;6.60;;;21.50;1.00;;;;;;5112439;27;20213;-54
2021/07/27 05:25:20;;;;;;;7.07;4.80;;;21.50;1.00;;;;;;5145264;27;20446;-55
2021/07/27 05:27:47;;;;;;;6.10;5.60;;;21.70;1.00;;;;;;5133406;27;20419;-55
2021/07/27 05:30:13;;;;;;;5.93;5.33;;;21.90;1.00;;;;;;5134003;27;20780;-56
2021/07/27 05:32:40;;;;;;;5.03;4.63;;;22.00;1.00;;;;;;5128284;27;20457;-55
2021/07/27 05:35:06;;;;;;;6.90;5.67;;;22.10;1.00;;;;;;5131269;27;20478;-54
2021/07/27 05:37:32;;;;;;;6.13;5.40;;;22.20;1.00;;;;;;5128287;27;20503;-57
2021/07/27 05:39:58;;;;;;;6.10;5.53;;;22.30;1.00;;;;;;5129230;27;20803;-56
2021/07/27 05:42:23;;;;;;;5.60;4.73;;;22.50;1.00;;;;;;5131816;27;20249;-55
2021/07/27 05:44:49;;;;;;;11.13;5.40;;;22.50;1.00;;;;;;5132057;27;20185;-55
2021/07/27 05:47:14;;;;;;;8.03;6.03;;;22.60;1.00;;;;;;5132756;27;20185;-55
2021/07/27 05:49:40;;;;;;;6.47;5.30;;;22.70;1.00;;;;;;5130423;27;20177;-55
2021/07/27 05:52:06;;;;;;;8.23;5.47;;;23.00;1.00;;;;;;5135726;27;20673;-55
2021/07/27 05:54:32;;;;;;;5.47;4.97;;;23.20;1.00;;;;;;5113112;27;20186;-57
2021/07/27 05:56:57;;;;;;;5.90;5.10;;;23.30;1.00;;;;;;5132772;27;20426;-55
2021/07/27 05:59:23;;;;;;;6.40;5.80;;;23.30;1.00;;;;;;5131278;27;20377;-54
2021/07/27 06:01:49;;;;;;;7.63;5.47;;;23.40;1.00;;;;;;5127832;27;20201;-56
2021/07/27 06:04:16;;;;;;;6.03;5.43;;;23.40;1.00;;;;;;5126582;27;20825;-55
2021/07/27 06:06:42;;;;;;;5.17;4.50;;;23.50;1.00;;;;;;5139059;27;20449;-55
2021/07/27 06:09:10;;;;;;;9.87;4.50;;;23.60;1.00;;;;;;5140434;27;20426;-57
2021/07/27 06:11:36;;;;;;;5.17;4.67;;;23.70;1.00;;;;;;5126808;27;20827;-55
2021/07/27 06:14:04;;;;;;;5.60;5.00;;;24.00;1.00;;;;;;5119417;27;20449;-55
2021/07/27 06:16:30;;;;;;;5.70;5.20;;;24.10;1.00;;;;;;5123997;27;20466;-55
2021/07/27 06:18:56;;;;;;;8.27;4.90;;;24.20;1.00;;;;;;5132227;27;20431;-56
2021/07/27 06:21:21;;;;;;;5.40;4.90;;;24.30;1.00;;;;;;5129593;27;20450;-55
2021/07/27 06:23:47;;;;;;;5.00;4.50;;;24.40;1.00;;;;;;5131792;27;20201;-55
2021/07/27 06:26:12;;;;;;;5.50;5.00;;;24.50;1.00;;;;;;5125027;27;20189;-55
2021/07/27 06:28:38;;;;;;;5.73;4.63;;;24.60;1.00;;;;;;5132083;27;20251;-55
2021/07/27 06:31:11;;;;;;;5.67;5.17;;;24.70;1.00;;;;;;5128087;27;20192;-55
2021/07/27 06:33:38;;;;;;;7.00;4.50;;;24.90;1.00;;;;;;5130970;27;20260;-55
2021/07/27 06:36:03;;;;;;;5.43;4.87;;;24.90;1.00;;;;;;5126855;27;20427;-56
2021/07/27 06:38:29;;;;;;;5.03;4.57;;;24.90;1.00;;;;;;5129509;27;20439;-56
2021/07/27 06:40:54;;;;;;;6.30;4.70;;;25.00;1.00;;;;;;5131180;27;20201;-56
2021/07/27 06:43:20;;;;;;;5.00;4.60;;;25.20;1.00;;;;;;5132304;27;20721;-55
2021/07/27 06:45:55;;;;;;;6.60;4.10;;;25.50;1.00;;;;;;5131661;27;20188;-56
2021/07/27 06:48:22;;;;;;;5.80;5.17;;;25.80;1.00;;;;;;5147803;27;20196;-57
2021/07/27 06:50:47;;;;;;;5.00;4.60;;;25.90;1.00;;;;;;5152159;27;20422;-54
2021/07/27 06:53:13;;;;;;;5.30;4.80;;;26.10;1.00;;;;;;5127391;27;20469;-55
2021/07/27 06:55:38;;;;;;;4.70;4.30;;;26.20;1.00;;;;;;5130408;27;20638;-58
2021/07/27 06:58:04;;;;;;;6.90;5.77;;;26.10;1.00;;;;;;5130577;27;20192;-58
2021/07/27 07:00:29;;;;;;;5.00;4.23;;;26.30;1.00;;;;;;5130317;27;20197;-56
2021/07/27 07:02:55;;;;;;;4.90;4.40;;;26.10;1.00;;;;;;5108498;27;20531;-57
2021/07/27 07:05:21;;;;;;;5.20;4.70;;;26.20;1.00;;;;;;5131656;27;20185;-58
2021/07/27 07:07:46;;;;;;;5.20;4.03;;;26.20;1.00;;;;;;5110195;27;20186;-56
2021/07/27 07:10:12;;;;;;;5.37;4.30;;;26.20;1.00;;;;;;5128723;27;20302;-58
2021/07/27 07:12:38;;;;;;;8.57;4.80;;;26.10;1.00;;;;;;5130715;27;20186;-58
2021/07/27 07:15:04;;;;;;;5.20;4.70;;;26.00;1.00;;;;;;5112047;27;20497;-58
2021/07/27 07:17:30;;;;;;;5.10;4.60;;;25.90;1.00;;;;;;5131289;27;20185;-57
2021/07/27 07:19:56;;;;;;;5.23;4.73;;;26.10;1.00;;;;;;5129915;27;21134;-57
2021/07/27 07:22:22;;;;;;;5.57;4.40;;;26.00;1.00;;;;;;5129507;27;20253;-57
2021/07/27 07:24:48;;;;;;;5.60;5.10;;;26.00;1.00;;;;;;5130842;27;20198;-57
2021/07/27 07:27:14;;;;;;;4.60;4.20;;;26.00;1.00;;;;;;5112052;27;20410;-58
2021/07/27 07:29:40;;;;;;;5.20;4.70;;;25.90;1.00;;;;;;5132121;27;20318;-57
2021/07/27 07:32:06;;;;;;;6.10;4.80;;;25.90;1.00;;;;;;5133024;27;20438;-58
2021/07/27 07:34:32;;;;;;;4.63;4.13;;;26.00;1.00;;;;;;5133079;27;20927;-60
2021/07/27 07:36:59;;;;;;;5.40;4.40;;;25.90;1.00;;;;;;5133335;27;20439;-57
2021/07/27 07:39:25;;;;;;;4.30;4.00;;;26.00;1.00;;;;;;5132625;27;20426;-57
2021/07/27 07:41:50;;;;;;;6.57;4.70;;;26.30;1.00;;;;;;5132179;27;20485;-58
2021/07/27 07:44:16;;;;;;;5.93;4.10;;;26.40;1.00;;;;;;5131835;27;20435;-58
2021/07/27 07:46:41;;;;;;;4.93;4.30;;;26.60;1.00;;;;;;5114343;27;20178;-57
2021/07/27 07:49:07;;;;;;;4.63;4.10;;;26.80;1.00;;;;;;5124834;27;20634;-56
2021/07/27 07:51:35;;;;;;;4.93;4.53;;;26.70;1.00;;;;;;5131541;27;20300;-59
2021/07/27 07:54:00;;;;;;;5.73;5.10;;;26.90;1.00;;;;;;5133984;27;20174;-56
2021/07/27 07:56:26;;;;;;;7.63;4.73;;;26.90;1.00;;;;;;5130159;27;20441;-58
2021/07/27 07:58:52;;;;;;;5.03;4.63;;;26.90;1.00;;;;;;5133057;27;20268;-55
2021/07/27 08:01:18;;;;;;;5.00;4.30;;;26.90;1.00;;;;;;5113207;27;20681;-56
2021/07/27 08:03:44;;;;;;;4.47;4.07;;;26.70;1.00;;;;;;5127922;27;20476;-57
2021/07/27 08:06:10;;;;;;;5.13;4.63;;;26.60;1.00;;;;;;5133729;27;20440;-56
2021/07/27 08:08:39;;;;;;;5.57;5.03;;;26.80;1.00;;;;;;5131710;27;20599;-55
2021/07/27 08:11:06;;;;;;;4.60;4.20;;;26.90;1.00;;;;;;5114587;27;20586;-56
2021/07/27 08:13:31;;;;;;;4.03;3.40;;;27.10;1.00;;;;;;5131921;27;20757;-57
2021/07/27 08:15:57;;;;;;;4.63;4.17;;;27.20;1.00;;;;;;5133588;27;20443;-56
2021/07/27 08:18:22;;;;;;;5.50;4.43;;;27.50;1.00;;;;;;5133646;27;20173;-55
2021/07/27 08:20:48;;;;;;;12.40;3.97;;;27.40;1.00;;;;;;5133857;27;20197;-56
2021/07/27 08:23:14;;;;;;;4.50;4.13;;;27.30;1.00;;;;;;5128767;27;20197;-57
2021/07/27 08:25:39;;;;;;;6.00;4.00;;;27.20;1.00;;;;;;5133695;27;20571;-56
2021/07/27 08:28:05;;;;;;;4.00;3.60;;;27.40;1.00;;;;;;5133727;27;20232;-57
2021/07/27 08:30:31;;;;;;;3.83;3.53;;;27.60;1.00;;;;;;5133660;27;20185;-54
2021/07/27 08:32:56;;;;;;;6.30;3.67;;;27.80;1.00;;;;;;5127192;27;20534;-55
2021/07/27 08:35:22;;;;;;;3.90;3.50;;;28.30;1.00;;;;;;5132809;27;20269;-56
2021/07/27 08:37:49;;;;;;;4.50;3.70;;;28.50;1.00;;;;;;5144331;27;20209;-56
2021/07/27 08:40:17;;;;;;;4.10;3.80;;;28.50;1.00;;;;;;5131669;27;20182;-56
2021/07/27 08:42:42;;;;;;;4.37;3.97;;;28.30;1.00;;;;;;5129611;27;20464;-56
2021/07/27 08:45:09;;;;;;;3.40;2.90;;;28.00;1.00;;;;;;5132716;27;20439;-56
2021/07/27 08:47:35;;;;;;;3.80;3.40;;;27.60;1.00;;;;;;5130246;27;20444;-56
2021/07/27 08:50:02;;;;;;;4.40;4.00;;;27.30;1.00;;;;;;5132378;27;20505;-56
2021/07/27 08:52:28;;;;;;;3.90;3.40;;;27.20;1.00;;;;;;5133507;27;20273;-56
2021/07/27 08:54:54;;;;;;;4.00;3.70;;;27.30;1.00;;;;;;5132204;27;20447;-56
2021/07/27 08:57:20;;;;;;;4.57;4.20;;;27.40;1.00;;;;;;5131797;27;20240;-57
2021/07/27 08:59:46;;;;;;;5.70;3.67;;;27.60;1.00;;;;;;5130921;27;20256;-58
2021/07/27 09:02:12;;;;;;;3.83;3.50;;;27.80;1.00;;;;;;5131101;27;20492;-55
2021/07/27 09:04:38;;;;;;;3.80;3.50;;;28.10;1.00;;;;;;5109051;27;20444;-56
2021/07/27 09:07:06;;;;;;;3.73;3.33;;;28.50;1.00;;;;;;5133305;27;20204;-56
2021/07/27 09:09:35;;;;;;;3.43;3.13;;;28.60;1.00;;;;;;5133025;27;20586;-56
2021/07/27 09:12:09;;;;;;;4.10;3.70;;;28.70;1.00;;;;;;5131296;27;20469;-57
2021/07/27 09:14:44;;;;;;;4.30;3.47;;;28.80;1.00;;;;;;5127145;27;20679;-57
2021/07/27 09:17:10;;;;;;;4.10;3.70;;;28.90;1.00;;;;;;5130234;27;20405;-56
2021/07/27 09:19:42;;;;;;;4.20;3.30;;;28.80;1.00;;;;;;5132855;27;20424;-55
2021/07/27 09:22:08;;;;;;;4.87;3.70;;;28.60;1.00;;;;;;5118775;27;20197;-57
2021/07/27 09:24:34;;;;;;;6.17;4.10;;;28.70;1.00;;;;;;5133080;27;20436;-58
2021/07/27 09:27:02;;;;;;;3.47;3.17;;;28.60;1.00;;;;;;5132789;27;20230;-55
2021/07/27 09:29:29;;;;;;;3.60;3.30;;;28.90;1.00;;;;;;5128740;27;20505;-57
2021/07/27 09:31:57;;;;;;;3.90;3.60;;;29.10;1.00;;;;;;5110779;27;20764;-56
2021/07/27 09:34:24;;;;;;;4.90;3.77;;;29.20;1.00;;;;;;5133074;27;20995;-57
2021/07/27 09:37:04;;;;;;;4.23;3.83;;;29.10;1.00;;;;;;5143201;27;20448;-56
2021/07/27 09:39:31;;;;;;;4.80;3.93;;;29.30;1.00;;;;;;5141784;27;20432;-56
2021/07/27 09:42:04;;;;;;;4.13;3.70;;;29.80;1.00;;;;;;5138004;27;20949;-57
2021/07/27 09:44:31;;;;;;;4.13;3.73;;;30.00;1.00;;;;;;5133761;27;20541;-57
2021/07/27 09:46:58;;;;;;;3.60;3.30;;;30.20;1.00;;;;;;5131622;27;20894;-57
2021/07/27 09:49:25;;;;;;;4.30;3.47;;;30.50;1.00;;;;;;5128654;27;20434;-56
2021/07/27 09:51:51;;;;;;;4.60;3.50;;;30.30;1.00;;;;;;5140481;27;20458;-55
2021/07/27 09:54:21;;;;;;;4.00;3.47;;;30.00;1.00;;;;;;5133572;27;20421;-57
2021/07/27 09:56:48;;;;;;;3.70;3.40;;;29.70;1.00;;;;;;5131455;27;20502;-56
2021/07/27 09:59:15;;;;;;;3.87;3.57;;;29.00;1.00;;;;;;5130253;27;20425;-56
2021/07/27 10:01:48;;;;;;;4.00;3.60;;;29.10;1.00;;;;;;5132486;27;20866;-57
2021/07/27 10:04:21;;;;;;;4.03;3.70;;;29.50;1.00;;;;;;5144760;27;20427;-56
2021/07/27 10:06:47;;;;;;;4.30;3.90;;;29.70;1.00;;;;;;5132909;27;20404;-57
2021/07/27 10:09:23;;;;;;;4.60;3.83;;;29.70;1.00;;;;;;5131232;27;20431;-57
2021/07/27 10:11:49;;;;;;;3.67;3.37;;;29.70;1.00;;;;;;5124667;27;20469;-57
2021/07/27 10:14:16;;;;;;;4.17;3.77;;;29.60;1.00;;;;;;5125408;27;20437;-57
2021/07/27 10:16:43;;;;;;;4.10;3.63;;;29.30;1.00;;;;;;5131507;27;20262;-58
2021/07/27 10:19:21;;;;;;;3.97;3.67;;;29.50;1.00;;;;;;5127099;27;20455;-56
2021/07/27 10:22:00;;;;;;;4.40;4.00;;;29.90;1.00;;;;;;5129855;27;20538;-58
2021/07/27 10:24:50;;;;;;;3.77;3.47;;;30.00;1.00;;;;;;5129039;27;20413;-57
2021/07/27 10:27:25;;;;;;;5.07;3.87;;;30.30;1.00;;;;;;5129334;27;20913;-57
2021/07/27 10:29:51;;;;;;;6.50;4.03;;;30.00;1.00;;;;;;5131355;27;20458;-58
2021/07/27 10:32:24;;;;;;;3.17;2.93;;;30.00;1.00;;;;;;5122733;27;20522;-57
2021/07/27 10:34:52;;;;;;;4.33;3.97;;;30.60;1.00;;;;;;5125404;27;20492;-57
2021/07/27 10:37:18;;;;;;;5.60;3.37;;;30.90;1.00;;;;;;5130252;27;20939;-59
2021/07/27 10:39:52;;;;;;;5.10;4.00;;;30.90;1.00;;;;;;5138904;27;21133;-57
2021/07/27 10:42:18;;;;;;;4.23;3.87;;;31.00;1.00;;;;;;5106740;27;20455;-57
2021/07/27 10:44:45;;;;;;;4.43;3.53;;;31.10;1.00;;;;;;5130495;27;20488;-56
2021/07/27 10:47:18;;;;;;;4.00;3.70;;;31.10;1.00;;;;;;5131449;27;20427;-57
2021/07/27 10:49:44;;;;;;;4.23;3.87;;;31.10;1.00;;;;;;5131035;27;20825;-57
2021/07/27 10:52:11;;;;;;;3.87;3.50;;;30.90;1.00;;;;;;5130652;27;20467;-58
2021/07/27 10:54:38;;;;;;;4.27;3.87;;;30.50;1.00;;;;;;5131262;27;20177;-57
2021/07/27 10:57:05;;;;;;;4.40;3.87;;;30.40;1.00;;;;;;5139769;27;20924;-56
2021/07/27 10:59:35;;;;;;;3.80;3.40;;;30.30;1.00;;;;;;5123361;27;20409;-56
2021/07/27 11:02:09;;;;;;;4.07;3.70;;;30.30;1.00;;;;;;5129033;27;20806;-56
2021/07/27 11:04:35;;;;;;;4.47;4.07;;;30.40;1.00;;;;;;5126952;27;20492;-56
2021/07/27 11:07:06;;;;;;;4.20;3.80;;;30.40;1.00;;;;;;5113259;27;20542;-57
2021/07/27 11:09:32;;;;;;;3.73;3.43;;;30.30;1.00;;;;;;5127415;27;20169;-56
2021/07/27 11:11:58;;;;;;;3.83;3.53;;;30.40;1.00;;;;;;5130443;27;20823;-57
2021/07/27 11:14:24;;;;;;;3.83;3.43;;;30.80;1.00;;;;;;5130143;27;20170;-58
2021/07/27 11:16:50;;;;;;;5.10;3.90;;;31.00;1.00;;;;;;5127711;27;20338;-59
2021/07/27 11:19:28;;;;;;;4.00;3.60;;;30.90;1.00;;;;;;5130480;27;20492;-57
2021/07/27 11:21:57;;;;;;;4.57;3.50;;;30.70;1.00;;;;;;5129452;27;20442;-57
2021/07/27 11:24:23;;;;;;;4.17;3.87;;;30.40;1.00;;;;;;5129242;27;20430;-57
2021/07/27 11:26:51;;;;;;;5.60;3.80;;;30.20;1.00;;;;;;5112021;27;20461;-57
2021/07/27 11:29:19;;;;;;;5.00;4.50;;;30.20;1.00;;;;;;5130853;27;20404;-57
2021/07/27 11:31:52;;;;;;;4.43;4.03;;;30.20;1.00;;;;;;5129275;27;20420;-56
2021/07/27 11:34:31;;;;;;;3.53;3.30;;;30.20;1.00;;;;;;5130789;27;20921;-56
2021/07/27 11:36:58;;;;;;;4.60;3.50;;;30.30;1.00;;;;;;5130053;27;20417;-57
2021/07/27 11:39:24;;;;;;;4.33;3.50;;;30.50;1.00;;;;;;5130865;27;20441;-57
2021/07/27 11:42:03;;;;;;;5.60;3.97;;;31.00;1.00;;;;;;5109218;28;20442;-57
2021/07/27 11:44:29;;;;;;;4.67;4.27;;;31.40;1.00;;;;;;5125532;27;20417;-56
2021/07/27 11:46:55;;;;;;;5.10;4.70;;;31.60;1.00;;;;;;5125178;27;20909;-56
2021/07/27 11:49:20;;;;;;;5.67;4.63;;;31.30;1.00;;;;;;5129388;27;20413;-56
2021/07/27 11:51:46;;;;;;;5.10;4.60;;;30.90;1.00;;;;;;5131186;27;20686;-55
2021/07/27 11:54:12;;;;;;;5.27;4.60;;;30.70;1.00;;;;;;5129761;27;20182;-58
2021/07/27 11:56:46;;;;;;;5.53;5.03;;;30.50;1.00;;;;;;5126493;27;20269;-56
2021/07/27 11:59:12;;;;;;;4.70;4.30;;;30.20;1.00;;;;;;5125232;27;20173;-58
2021/07/27 12:01:42;;;;;;;4.77;4.10;;;29.80;1.00;;;;;;5128400;27;20406;-56
2021/07/27 12:04:08;;;;;;;4.70;3.97;;;29.60;1.00;;;;;;5130708;27;20182;-57
2021/07/27 12:06:56;;;;;;;7.10;4.30;;;29.30;1.00;;;;;;5130649;27;20416;-56
2021/07/27 12:09:22;;;;;;;4.77;4.37;;;28.90;1.00;;;;;;5125620;27;20487;-56
2021/07/27 12:11:49;;;;;;;5.83;4.30;;;29.00;1.00;;;;;;5130700;27;20410;-58
2021/07/27 12:14:15;;;;;;;4.53;4.13;;;29.10;1.00;;;;;;5112027;27;20181;-56
2021/07/27 12:16:40;;;;;;;4.27;3.60;;;29.30;1.00;;;;;;5133857;27;20950;-56
2021/07/27 12:19:09;;;;;;;4.97;4.37;;;29.40;1.00;;;;;;5134057;27;20181;-56
2021/07/27 12:21:34;;;;;;;4.10;3.70;;;29.50;1.00;;;;;;5132945;27;20173;-56
2021/07/27 12:24:00;;;;;;;4.73;4.27;;;29.40;1.00;;;;;;5140358;27;20437;-56
2021/07/27 12:26:25;;;;;;;3.93;3.53;;;29.20;1.00;;;;;;5128581;27;20178;-56
2021/07/27 12:28:51;;;;;;;5.30;3.87;;;28.70;1.00;;;;;;5134607;27;20172;-56
2021/07/27 12:31:16;;;;;;;4.00;3.60;;;28.60;1.00;;;;;;5133973;27;20173;-55
2021/07/27 12:33:42;;;;;;;3.97;3.60;;;28.70;1.00;;;;;;5134288;27;20416;-56
2021/07/27 12:36:08;;;;;;;4.90;4.10;;;28.90;1.00;;;;;;5134456;27;20177;-55
2021/07/27 12:38:34;;;;;;;11.10;5.40;;;29.20;1.00;;;;;;5132655;27;20655;-58
2021/07/27 12:41:00;;;;;;;4.30;3.80;;;29.50;1.00;;;;;;5134288;27;20181;-56
2021/07/27 12:43:26;;;;;;;4.33;3.70;;;29.90;1.00;;;;;;5114984;27;20554;-56
2021/07/27 12:45:51;;;;;;;4.57;4.03;;;30.60;1.00;;;;;;5133960;27;20534;-56
2021/07/27 12:48:17;;;;;;;4.53;4.13;;;30.80;1.00;;;;;;5133701;27;20223;-57
2021/07/27 12:50:42;;;;;;;5.53;4.00;;;30.80;1.00;;;;;;5133795;27;20192;-57
2021/07/27 12:53:08;;;;;;;5.27;3.70;;;30.70;1.00;;;;;;5133818;27;20693;-56
2021/07/27 12:55:33;;;;;;;4.27;3.87;;;30.90;1.00;;;;;;5132535;27;20223;-56
2021/07/27 12:58:00;;;;;;;4.40;4.00;;;30.90;1.00;;;;;;5129805;27;20647;-57
2021/07/27 13:00:26;;;;;;;4.10;3.80;;;31.10;1.00;;;;;;5133338;27;20182;-58
2021/07/27 13:02:51;;;;;;;4.90;4.20;;;31.60;1.00;;;;;;5115263;27;20432;-56
2021/07/27 13:05:17;;;;;;;4.87;4.47;;;31.90;1.00;;;;;;5133590;27;20257;-56
2021/07/27 13:07:43;;;;;;;7.63;4.30;;;32.20;1.00;;;;;;5133432;27;20706;-56
2021/07/27 13:10:09;;;;;;;4.13;3.83;;;32.20;1.00;;;;;;5116129;27;20184;-56
2021/07/27 13:12:34;;;;;;;4.43;4.03;;;32.30;1.00;;;;;;5135204;27;20188;-59
2021/07/27 13:15:00;;;;;;;5.17;4.00;;;32.40;1.00;;;;;;5150838;27;20439;-57